Time;durP1;ratioP1;P1;durP2;ratioP2;P2;SDS_P1;SDS_P2;PMS_P1;PMS_P2;Temp;Humidity;BMP_temperature;BMP_pressure;BME280_temperature;BME280_humidity;BME280_pressure;Samples;Min_cycle;Max_cycle;Signal;HPM_P1;HPM_P2
2022/08/10 00:00:21;;;;;;;3.17;2.97;;;;;;;;;;5092672;28;20799;-74
2022/08/10 00:02:48;;;;;;;3.73;3.43;;;;;;;;;;5092373;28;20967;-76
2022/08/10 00:05:15;;;;;;;4.70;3.43;;;;;;;;;;5095337;28;20467;-75
2022/08/10 00:07:43;;;;;;;4.90;3.10;;;;;;;;;;5092665;28;20439;-74
2022/08/10 00:10:13;;;;;;;3.50;3.20;;;;;;;;;;5092508;28;20489;-76
2022/08/10 00:12:40;;;;;;;3.40;3.20;;;;;;;;;;5091948;28;21152;-75
2022/08/10 00:15:07;;;;;;;3.73;2.97;;;;;;;;;;5092386;28;20464;-75
2022/08/10 00:17:35;;;;;;;3.60;3.40;;;;;;;;;;5092277;28;20996;-76
2022/08/10 00:20:02;;;;;;;3.50;3.20;;;;;;;;;;5092403;28;20444;-74
2022/08/10 00:22:29;;;;;;;3.90;3.40;;;;;;;;;;5091996;28;20479;-76
2022/08/10 00:24:57;;;;;;;3.33;3.13;;;;;;;;;;5092125;28;20483;-75
2022/08/10 00:27:24;;;;;;;3.40;3.13;;;;;;;;;;5092400;28;20444;-75
2022/08/10 00:29:51;;;;;;;3.57;3.27;;;;;;;;;;5092042;28;20493;-76
2022/08/10 00:32:18;;;;;;;3.20;2.87;;;;;;;;;;5092056;28;20497;-76
2022/08/10 00:34:45;;;;;;;3.50;3.20;;;;;;;;;;5091720;28;20464;-74
2022/08/10 00:37:12;;;;;;;5.20;3.43;;;;;;;;;;5092310;28;20444;-76
2022/08/10 00:39:39;;;;;;;3.30;3.10;;;;;;;;;;5091978;28;20821;-75
2022/08/10 00:42:09;;;;;;;4.37;3.30;;;;;;;;;;5092044;28;20439;-76
2022/08/10 00:44:36;;;;;;;3.03;2.90;;;;;;;;;;5091622;28;20626;-75
2022/08/10 00:47:04;;;;;;;3.70;3.40;;;;;;;;;;5092058;28;20451;-75
2022/08/10 00:49:31;;;;;;;3.03;2.83;;;;;;;;;;5092264;28;20489;-77
2022/08/10 00:51:58;;;;;;;3.43;3.23;;;;;;;;;;5092001;28;20489;-75
2022/08/10 00:54:25;;;;;;;3.00;2.80;;;;;;;;;;5091512;28;20455;-78
2022/08/10 00:56:53;;;;;;;3.87;3.00;;;;;;;;;;5091254;28;20439;-76
2022/08/10 00:59:21;;;;;;;3.33;3.13;;;;;;;;;;5091878;28;20439;-76
2022/08/10 01:01:48;;;;;;;3.40;3.10;;;;;;;;;;5091847;28;20877;-76
2022/08/10 01:04:15;;;;;;;3.63;3.33;;;;;;;;;;5091514;28;20487;-77
2022/08/10 01:06:50;;;;;;;9.30;8.43;;;;;;;;;;5091322;28;20931;-76
2022/08/10 01:09:23;;;;;;;4.47;4.17;;;;;;;;;;5091456;28;20526;-76
2022/08/10 01:12:01;;;;;;;3.10;2.90;;;;;;;;;;5071174;28;20428;-75
2022/08/10 01:14:37;;;;;;;3.03;2.83;;;;;;;;;;5070246;28;20987;-75
2022/08/10 01:17:13;;;;;;;2.93;2.83;;;;;;;;;;5071078;28;20631;-75
2022/08/10 01:19:49;;;;;;;3.33;3.00;;;;;;;;;;5071119;28;20962;-76
2022/08/10 01:22:34;;;;;;;2.83;2.67;;;;;;;;;;5071323;28;20417;-75
2022/08/10 01:25:11;;;;;;;3.00;2.80;;;;;;;;;;5070930;28;20484;-75
2022/08/10 01:27:44;;;;;;;2.73;2.63;;;;;;;;;;5071054;28;20467;-76
2022/08/10 01:30:17;;;;;;;3.37;3.17;;;;;;;;;;5071055;28;20444;-75
2022/08/10 01:32:50;;;;;;;3.50;2.40;;;;;;;;;;5082429;28;20520;-75
2022/08/10 01:35:20;;;;;;;2.83;2.63;;;;;;;;;;5089438;28;20880;-75
2022/08/10 01:37:51;;;;;;;3.33;3.13;;;;;;;;;;5093833;28;20444;-75
2022/08/10 01:40:24;;;;;;;3.60;3.30;;;;;;;;;;5094004;28;20450;-74
2022/08/10 01:42:55;;;;;;;3.30;2.93;;;;;;;;;;5093376;28;20475;-75
2022/08/10 01:45:25;;;;;;;3.90;3.20;;;;;;;;;;5093847;28;20483;-75
2022/08/10 01:50:42;;;;;;;3.63;3.33;;;;;;;;;;5093613;28;20526;-76
2022/08/10 01:53:12;;;;;;;3.20;3.00;;;;;;;;;;5093259;28;20476;-75
2022/08/10 01:55:42;;;;;;;5.83;3.00;;;;;;;;;;5094358;28;20475;-76
2022/08/10 01:58:14;;;;;;;5.33;2.80;;;;;;;;;;5096501;28;20482;-75
2022/08/10 02:00:55;;;;;;;3.60;3.20;;;;;;;;;;5096135;28;20450;-75
2022/08/10 02:03:26;;;;;;;2.50;2.40;;;;;;;;;;5092827;28;20490;-75
2022/08/10 02:05:55;;;;;;;3.47;3.17;;;;;;;;;;5093796;28;20479;-76
2022/08/10 02:08:24;;;;;;;3.10;2.90;;;;;;;;;;5093425;28;20480;-76
2022/08/10 02:10:56;;;;;;;2.67;2.57;;;;;;;;;;5093439;28;20440;-75
2022/08/10 02:13:23;;;;;;;3.37;3.07;;;;;;;;;;5088652;28;20436;-74
2022/08/10 02:15:54;;;;;;;2.77;2.67;;;;;;;;;;5091916;28;20470;-75
2022/08/10 02:18:23;;;;;;;3.33;3.03;;;;;;;;;;5095664;28;20526;-75
2022/08/10 02:20:51;;;;;;;3.10;2.97;;;;;;;;;;5095451;28;20443;-74
2022/08/10 02:23:25;;;;;;;2.80;2.70;;;;;;;;;;5094019;28;20480;-76
2022/08/10 02:25:55;;;;;;;3.50;3.20;;;;;;;;;;5092939;28;20467;-75
2022/08/10 02:28:23;;;;;;;3.13;2.93;;;;;;;;;;5093181;28;20440;-76
2022/08/10 02:30:54;;;;;;;4.10;3.03;;;;;;;;;;5092880;28;20812;-75
2022/08/10 02:33:23;;;;;;;3.20;2.67;;;;;;;;;;5092694;28;20444;-75
2022/08/10 02:35:52;;;;;;;2.60;2.50;;;;;;;;;;5092999;28;20472;-75
2022/08/10 02:38:23;;;;;;;3.60;3.30;;;;;;;;;;5092552;28;20557;-75
2022/08/10 02:40:55;;;;;;;3.70;3.03;;;;;;;;;;5092420;28;20458;-76
2022/08/10 02:43:27;;;;;;;3.17;2.97;;;;;;;;;;5091928;28;20491;-75
2022/08/10 02:46:00;;;;;;;3.00;2.80;;;;;;;;;;5092300;28;20460;-75
2022/08/10 02:48:34;;;;;;;3.30;3.00;;;;;;;;;;5092427;28;20813;-75
2022/08/10 02:51:04;;;;;;;3.60;3.30;;;;;;;;;;5092066;28;20446;-75
2022/08/10 02:53:33;;;;;;;3.17;2.90;;;;;;;;;;5091952;28;20451;-75
2022/08/10 02:56:04;;;;;;;3.80;3.17;;;;;;;;;;5091658;28;20464;-75
2022/08/10 02:58:34;;;;;;;3.47;3.20;;;;;;;;;;5092356;28;20448;-75
2022/08/10 03:01:05;;;;;;;2.80;2.70;;;;;;;;;;5092043;28;20452;-76
2022/08/10 03:03:40;;;;;;;3.30;3.10;;;;;;;;;;5091940;28;20468;-76
2022/08/10 03:06:14;;;;;;;3.60;3.40;;;;;;;;;;5092103;28;20534;-76
2022/08/10 03:08:43;;;;;;;3.97;3.67;;;;;;;;;;5092237;28;20436;-75
2022/08/10 03:11:13;;;;;;;4.00;3.70;;;;;;;;;;5091855;28;20481;-75
2022/08/10 03:13:43;;;;;;;3.53;3.33;;;;;;;;;;5091878;28;20448;-75
2022/08/10 03:16:15;;;;;;;3.53;3.30;;;;;;;;;;5092420;28;20550;-76
2022/08/10 03:18:43;;;;;;;3.33;2.90;;;;;;;;;;5091940;28;20459;-75
2022/08/10 03:21:12;;;;;;;3.47;3.20;;;;;;;;;;5091801;28;20451;-76
2022/08/10 03:23:42;;;;;;;3.57;3.37;;;;;;;;;;5091727;28;20583;-75
2022/08/10 03:26:11;;;;;;;3.90;3.70;;;;;;;;;;5091499;28;20476;-75
2022/08/10 03:28:41;;;;;;;3.73;3.53;;;;;;;;;;5091875;28;20531;-76
2022/08/10 03:31:09;;;;;;;4.40;3.80;;;;;;;;;;5091839;28;20497;-75
2022/08/10 03:33:40;;;;;;;3.20;3.00;;;;;;;;;;5091353;28;20444;-75
2022/08/10 03:36:08;;;;;;;3.60;3.30;;;;;;;;;;5091709;28;20464;-76
2022/08/10 03:38:36;;;;;;;3.50;3.30;;;;;;;;;;5091582;28;20505;-75
2022/08/10 03:41:05;;;;;;;5.40;3.27;;;;;;;;;;5091832;28;20451;-76
2022/08/10 03:43:39;;;;;;;3.40;3.20;;;;;;;;;;5090974;28;20482;-75
2022/08/10 03:46:09;;;;;;;3.37;3.17;;;;;;;;;;5091443;28;20459;-76
2022/08/10 03:48:37;;;;;;;3.63;3.33;;;;;;;;;;5091354;28;20883;-75
2022/08/10 03:51:07;;;;;;;3.20;3.00;;;;;;;;;;5091544;28;20448;-75
2022/08/10 03:53:38;;;;;;;3.60;3.40;;;;;;;;;;5091299;28;20474;-76
2022/08/10 03:56:08;;;;;;;4.13;3.73;;;;;;;;;;5089976;28;20535;-75
2022/08/10 03:58:36;;;;;;;3.30;3.10;;;;;;;;;;5091654;28;20946;-76
2022/08/10 04:01:04;;;;;;;4.13;3.73;;;;;;;;;;5091153;28;20946;-75
2022/08/10 04:03:43;;;;;;;3.60;3.30;;;;;;;;;;5090883;28;20921;-76
2022/08/10 04:06:15;;;;;;;4.13;3.80;;;;;;;;;;5090995;28;20483;-75
2022/08/10 04:08:48;;;;;;;3.77;3.57;;;;;;;;;;5091271;28;20972;-75
2022/08/10 04:11:20;;;;;;;3.80;3.57;;;;;;;;;;5075560;28;20482;-76
2022/08/10 04:13:51;;;;;;;3.70;3.50;;;;;;;;;;5070955;28;20821;-75
2022/08/10 04:16:22;;;;;;;3.73;3.43;;;;;;;;;;5079569;28;20518;-75
2022/08/10 04:18:51;;;;;;;3.73;3.53;;;;;;;;;;5080091;28;20445;-75
2022/08/10 04:21:25;;;;;;;4.47;3.80;;;;;;;;;;5090625;28;20444;-74
2022/08/10 04:23:57;;;;;;;4.10;3.70;;;;;;;;;;5088452;28;20477;-75
2022/08/10 04:26:26;;;;;;;4.37;4.07;;;;;;;;;;5076642;28;20543;-75
2022/08/10 04:28:58;;;;;;;4.37;3.80;;;;;;;;;;5076954;28;20960;-75
2022/08/10 04:31:27;;;;;;;3.67;3.30;;;;;;;;;;5094416;28;20509;-75
2022/08/10 04:33:56;;;;;;;4.20;3.73;;;;;;;;;;5093780;28;20810;-75
2022/08/10 04:36:28;;;;;;;4.37;3.47;;;;;;;;;;5090968;28;20551;-75
2022/08/10 04:41:48;;;;;;;4.80;3.50;;;;;;;;;;5090868;28;20436;-75
2022/08/10 04:44:19;;;;;;;6.00;3.97;;;;;;;;;;5092456;28;20475;-75
2022/08/10 04:46:47;;;;;;;7.13;3.90;;;;;;;;;;5090137;28;21265;-75
2022/08/10 04:49:17;;;;;;;3.90;3.70;;;;;;;;;;5090576;28;20443;-75
2022/08/10 04:51:47;;;;;;;5.30;4.00;;;;;;;;;;5090486;28;20440;-75
2022/08/10 04:54:15;;;;;;;4.83;4.43;;;;;;;;;;5089947;28;20435;-75
2022/08/10 04:56:44;;;;;;;4.00;3.80;;;;;;;;;;5088998;28;20594;-74
2022/08/10 04:59:12;;;;;;;3.13;2.93;;;;;;;;;;5092171;28;20440;-76
2022/08/10 05:02:00;;;;;;;5.63;4.30;;;;;;;;;;5090134;28;20439;-75
2022/08/10 05:04:29;;;;;;;3.80;3.60;;;;;;;;;;5095076;28;20479;-75
2022/08/10 05:07:08;;;;;;;4.10;3.80;;;;;;;;;;5098005;28;20446;-75
2022/08/10 05:09:39;;;;;;;4.47;4.07;;;;;;;;;;5090295;28;20440;-75
2022/08/10 05:12:11;;;;;;;4.20;3.90;;;;;;;;;;5090070;28;20452;-75
2022/08/10 05:14:41;;;;;;;4.23;3.80;;;;;;;;;;5090237;28;20558;-76
2022/08/10 05:17:12;;;;;;;4.03;3.73;;;;;;;;;;5090293;28;20450;-75
2022/08/10 05:19:44;;;;;;;8.67;4.27;;;;;;;;;;5089911;28;20440;-75
2022/08/10 05:22:14;;;;;;;4.57;4.17;;;;;;;;;;5089851;28;20452;-76
2022/08/10 05:24:44;;;;;;;4.03;3.67;;;;;;;;;;5089607;28;20483;-76
2022/08/10 05:27:14;;;;;;;4.17;3.77;;;;;;;;;;5090878;28;20525;-76
2022/08/10 05:29:47;;;;;;;4.10;3.80;;;;;;;;;;5090585;28;20451;-75
2022/08/10 05:32:15;;;;;;;4.33;4.00;;;;;;;;;;5089739;28;20443;-75
2022/08/10 05:34:44;;;;;;;3.87;3.57;;;;;;;;;;5089477;28;20471;-75
2022/08/10 05:37:14;;;;;;;4.00;3.70;;;;;;;;;;5089597;28;20569;-75
2022/08/10 05:39:43;;;;;;;4.03;3.80;;;;;;;;;;5089533;28;20467;-75
2022/08/10 05:42:16;;;;;;;3.90;3.70;;;;;;;;;;5089739;28;20440;-75
2022/08/10 05:44:47;;;;;;;5.67;4.07;;;;;;;;;;5089407;28;20541;-76
2022/08/10 05:47:25;;;;;;;4.50;4.13;;;;;;;;;;5089712;28;20447;-76
2022/08/10 05:49:55;;;;;;;3.60;3.30;;;;;;;;;;5089725;28;20571;-75
2022/08/10 05:52:36;;;;;;;4.40;3.37;;;;;;;;;;5089753;28;20520;-75
2022/08/10 05:55:15;;;;;;;3.60;3.40;;;;;;;;;;5089905;28;20550;-75
2022/08/10 05:57:48;;;;;;;4.20;3.90;;;;;;;;;;5092304;28;20455;-76
2022/08/10 06:00:20;;;;;;;4.37;4.00;;;;;;;;;;5092661;28;20440;-75
2022/08/10 06:02:55;;;;;;;4.47;4.10;;;;;;;;;;5092664;28;20447;-75
2022/08/10 06:05:26;;;;;;;4.00;3.73;;;;;;;;;;5095295;28;20483;-76
2022/08/10 06:07:58;;;;;;;3.50;3.30;;;;;;;;;;5097008;28;20460;-76
2022/08/10 06:10:31;;;;;;;7.63;3.50;;;;;;;;;;5085380;28;20457;-76
2022/08/10 06:15:49;;;;;;;4.10;3.83;;;;;;;;;;5069579;28;20436;-76
2022/08/10 06:18:23;;;;;;;3.63;3.33;;;;;;;;;;5069800;28;20440;-74
2022/08/10 06:20:50;;;;;;;6.97;3.57;;;;;;;;;;5072590;28;20532;-77
2022/08/10 06:23:38;;;;;;;4.10;3.90;;;;;;;;;;5073067;28;20437;-74
2022/08/10 06:26:06;;;;;;;4.07;3.77;;;;;;;;;;5076390;28;20579;-75
2022/08/10 06:28:39;;;;;;;5.73;3.13;;;;;;;;;;5092992;28;20443;-75
2022/08/10 06:31:08;;;;;;;3.70;3.50;;;;;;;;;;5093487;28;20955;-75
2022/08/10 06:33:38;;;;;;;3.57;3.27;;;;;;;;;;5092463;28;20450;-76
2022/08/10 06:36:12;;;;;;;4.40;3.30;;;;;;;;;;5093030;28;20913;-75
2022/08/10 06:38:45;;;;;;;3.63;3.40;;;;;;;;;;5093248;28;20439;-76
2022/08/10 06:41:15;;;;;;;3.70;3.30;;;;;;;;;;5093143;28;20485;-76
2022/08/10 06:43:47;;;;;;;3.77;3.43;;;;;;;;;;5092756;28;20486;-76
2022/08/10 06:46:16;;;;;;;3.77;3.47;;;;;;;;;;5092884;28;20489;-75
2022/08/10 06:48:50;;;;;;;3.47;3.27;;;;;;;;;;5093389;28;20443;-75
2022/08/10 06:51:21;;;;;;;3.73;3.17;;;;;;;;;;5093464;28;20448;-75
2022/08/10 06:53:54;;;;;;;3.17;3.00;;;;;;;;;;5092322;28;20448;-75
2022/08/10 06:56:22;;;;;;;4.50;3.10;;;;;;;;;;5092570;28;20475;-76
2022/08/10 06:58:51;;;;;;;2.90;2.40;;;;;;;;;;5092171;28;20500;-76
2022/08/10 07:01:24;;;;;;;3.60;2.80;;;;;;;;;;5092061;28;20444;-75
2022/08/10 07:03:55;;;;;;;3.60;3.07;;;;;;;;;;5091831;28;20815;-75
2022/08/10 07:06:26;;;;;;;3.20;3.00;;;;;;;;;;5092485;28;20487;-75
2022/08/10 07:08:55;;;;;;;3.27;3.07;;;;;;;;;;5092697;28;20454;-75
2022/08/10 07:11:25;;;;;;;7.70;2.97;;;;;;;;;;5091823;28;20840;-74
2022/08/10 07:13:57;;;;;;;3.50;3.20;;;;;;;;;;5091913;28;20530;-75
2022/08/10 07:16:30;;;;;;;3.00;2.70;;;;;;;;;;5092462;28;20440;-74
2022/08/10 07:19:01;;;;;;;2.73;2.57;;;;;;;;;;5092036;28;20563;-76
2022/08/10 07:21:29;;;;;;;2.87;2.67;;;;;;;;;;5092007;28;20623;-76
2022/08/10 07:24:02;;;;;;;3.33;2.63;;;;;;;;;;5092164;28;21018;-75
2022/08/10 07:26:33;;;;;;;3.50;3.30;;;;;;;;;;5091610;28;20467;-76
2022/08/10 07:29:06;;;;;;;4.40;3.10;;;;;;;;;;5092846;28;20451;-76
2022/08/10 07:31:34;;;;;;;2.90;2.70;;;;;;;;;;5085713;28;20821;-77
2022/08/10 07:34:09;;;;;;;3.63;2.83;;;;;;;;;;5084613;28;21029;-75
2022/08/10 07:36:38;;;;;;;3.40;2.77;;;;;;;;;;5093021;28;20499;-75
2022/08/10 07:39:08;;;;;;;5.07;2.87;;;;;;;;;;5092406;28;21297;-75
2022/08/10 07:41:45;;;;;;;2.87;2.60;;;;;;;;;;5092646;28;20440;-74
2022/08/10 07:44:21;;;;;;;3.33;3.00;;;;;;;;;;5092566;28;20427;-76
2022/08/10 07:46:51;;;;;;;2.77;2.57;;;;;;;;;;5092702;28;20455;-75
2022/08/10 07:49:20;;;;;;;2.97;2.57;;;;;;;;;;5091811;28;20809;-75
2022/08/10 07:51:51;;;;;;;3.30;3.00;;;;;;;;;;5092301;28;20444;-77
2022/08/10 07:54:32;;;;;;;3.77;2.40;;;;;;;;;;5091618;28;20463;-76
2022/08/10 07:57:03;;;;;;;2.43;2.30;;;;;;;;;;5091482;28;20439;-76
2022/08/10 07:59:37;;;;;;;4.67;2.50;;;;;;;;;;5091687;28;20448;-76
2022/08/10 08:02:16;;;;;;;2.67;2.53;;;;;;;;;;5091447;28;20519;-77
2022/08/10 08:04:53;;;;;;;3.33;3.00;;;;;;;;;;5091258;28;20459;-74
2022/08/10 08:07:21;;;;;;;3.00;2.27;;;;;;;;;;5091431;28;20493;-77
2022/08/10 08:09:51;;;;;;;3.73;2.63;;;;;;;;;;5091409;28;20435;-75
2022/08/10 08:12:22;;;;;;;3.50;2.53;;;;;;;;;;5085778;28;20474;-75
2022/08/10 08:14:53;;;;;;;3.93;2.70;;;;;;;;;;5074863;28;20464;-75
2022/08/10 08:17:25;;;;;;;3.00;2.40;;;;;;;;;;5073100;28;20421;-75
2022/08/10 08:20:00;;;;;;;3.97;2.83;;;;;;;;;;5072244;28;20425;-76
2022/08/10 08:22:31;;;;;;;2.30;2.20;;;;;;;;;;5071877;28;20440;-75
2022/08/10 08:25:05;;;;;;;3.13;2.90;;;;;;;;;;5072091;28;20476;-76
2022/08/10 08:27:52;;;;;;;2.93;2.23;;;;;;;;;;5072161;28;20441;-76
2022/08/10 08:30:20;;;;;;;5.60;2.50;;;;;;;;;;5083070;28;20762;-77
2022/08/10 08:32:53;;;;;;;2.73;2.63;;;;;;;;;;5091025;28;20436;-76
2022/08/10 08:35:23;;;;;;;3.73;2.50;;;;;;;;;;5095641;28;20528;-77
2022/08/10 08:37:52;;;;;;;4.80;2.50;;;;;;;;;;5083711;28;20457;-76
2022/08/10 08:40:22;;;;;;;3.00;2.67;;;;;;;;;;5092030;28;20467;-77
2022/08/10 08:43:06;;;;;;;2.30;2.20;;;;;;;;;;5090798;28;20440;-76
2022/08/10 08:45:38;;;;;;;2.30;2.20;;;;;;;;;;5071019;28;20567;-76
2022/08/10 08:48:17;;;;;;;2.63;2.40;;;;;;;;;;5071487;28;20539;-76
2022/08/10 08:51:00;;;;;;;2.90;2.43;;;;;;;;;;5071846;28;20444;-77
2022/08/10 08:53:43;;;;;;;3.33;2.50;;;;;;;;;;5071194;28;20494;-77
2022/08/10 08:56:17;;;;;;;3.40;2.67;;;;;;;;;;5071781;28;20453;-76
2022/08/10 08:58:50;;;;;;;4.03;2.50;;;;;;;;;;5071913;28;20499;-77
2022/08/10 09:01:28;;;;;;;2.63;2.33;;;;;;;;;;5072400;28;20445;-77
2022/08/10 09:04:03;;;;;;;2.30;2.20;;;;;;;;;;5072190;28;20476;-77
2022/08/10 09:06:42;;;;;;;4.20;2.77;;;;;;;;;;5082656;28;20514;-77
2022/08/10 09:09:14;;;;;;;3.90;2.40;;;;;;;;;;5086885;28;20444;-77
2022/08/10 09:11:51;;;;;;;2.90;2.00;;;;;;;;;;5090246;28;20915;-77
2022/08/10 09:14:27;;;;;;;2.87;2.60;;;;;;;;;;5083851;28;20512;-75
2022/08/10 09:16:57;;;;;;;2.37;2.27;;;;;;;;;;5089915;28;20428;-76
2022/08/10 09:19:28;;;;;;;2.73;2.30;;;;;;;;;;5074986;28;20446;-76
2022/08/10 09:22:01;;;;;;;3.13;2.00;;;;;;;;;;5080699;28;20510;-77
2022/08/10 09:24:42;;;;;;;3.43;1.87;;;;;;;;;;5082912;28;20532;-78
2022/08/10 09:27:18;;;;;;;2.50;2.30;;;;;;;;;;5077786;28;20483;-76
2022/08/10 09:29:56;;;;;;;1.87;1.70;;;;;;;;;;5084815;28;20598;-76
2022/08/10 09:32:32;;;;;;;2.33;1.80;;;;;;;;;;5080034;28;20437;-76
2022/08/10 09:35:04;;;;;;;2.03;1.93;;;;;;;;;;5081223;28;21056;-76
2022/08/10 09:37:32;;;;;;;2.93;1.90;;;;;;;;;;5078455;28;20927;-76
2022/08/10 09:40:05;;;;;;;2.87;2.30;;;;;;;;;;5071689;28;20437;-77
2022/08/10 09:42:46;;;;;;;1.93;1.80;;;;;;;;;;5071555;28;20834;-77
2022/08/10 09:45:25;;;;;;;3.77;2.20;;;;;;;;;;5071037;28;20461;-76
2022/08/10 09:47:56;;;;;;;1.93;1.70;;;;;;;;;;5071211;28;20448;-76
2022/08/10 09:50:28;;;;;;;2.70;1.73;;;;;;;;;;5071340;28;21060;-76
2022/08/10 09:53:05;;;;;;;2.90;1.80;;;;;;;;;;5071227;28;20443;-76
2022/08/10 09:55:42;;;;;;;2.47;2.27;;;;;;;;;;5074098;28;20539;-77
2022/08/10 09:58:30;;;;;;;1.80;1.70;;;;;;;;;;5074906;28;20439;-76
2022/08/10 10:01:15;;;;;;;2.00;1.80;;;;;;;;;;5074548;28;20435;-76
2022/08/10 10:03:55;;;;;;;1.90;1.80;;;;;;;;;;5074302;28;20490;-76
2022/08/10 10:06:31;;;;;;;2.00;1.80;;;;;;;;;;5074227;28;20491;-77
2022/08/10 10:09:08;;;;;;;1.53;1.40;;;;;;;;;;5074374;28;20912;-76
2022/08/10 10:11:46;;;;;;;3.27;1.97;;;;;;;;;;5074713;28;20476;-76
2022/08/10 10:14:21;;;;;;;4.83;1.60;;;;;;;;;;5074496;28;20493;-76
2022/08/10 10:17:00;;;;;;;1.60;1.50;;;;;;;;;;5076944;28;20439;-76
2022/08/10 10:19:41;;;;;;;1.50;1.50;;;;;;;;;;5082745;28;20935;-78
2022/08/10 10:22:20;;;;;;;1.50;1.50;;;;;;;;;;5075593;28;20444;-76
2022/08/10 10:24:55;;;;;;;2.03;1.83;;;;;;;;;;5075057;28;20452;-77
2022/08/10 10:27:32;;;;;;;1.93;1.63;;;;;;;;;;5075642;28;20802;-76
2022/08/10 10:30:05;;;;;;;1.60;1.50;;;;;;;;;;5084291;28;21092;-77
2022/08/10 10:32:40;;;;;;;2.20;2.03;;;;;;;;;;5093928;28;20800;-76
2022/08/10 10:35:16;;;;;;;3.83;2.33;;;;;;;;;;5094150;28;20462;-76
2022/08/10 10:37:47;;;;;;;1.97;1.60;;;;;;;;;;5094233;28;20891;-77
2022/08/10 10:40:15;;;;;;;1.70;1.60;;;;;;;;;;5094137;28;20443;-76
2022/08/10 10:42:47;;;;;;;2.40;2.20;;;;;;;;;;5093707;28;20783;-76
2022/08/10 10:45:20;;;;;;;6.80;2.40;;;;;;;;;;5094316;28;20562;-76
2022/08/10 10:47:56;;;;;;;2.60;1.70;;;;;;;;;;5094235;28;20910;-76
2022/08/10 10:50:28;;;;;;;3.70;1.80;;;;;;;;;;5094379;28;20439;-76
2022/08/10 10:53:00;;;;;;;2.07;1.97;;;;;;;;;;5094225;28;20793;-76
2022/08/10 10:55:37;;;;;;;1.80;1.70;;;;;;;;;;5094844;28;20500;-77
2022/08/10 10:58:11;;;;;;;2.00;1.80;;;;;;;;;;5093963;28;20443;-76
2022/08/10 11:00:59;;;;;;;5.83;1.73;;;;;;;;;;5093415;28;20515;-77
2022/08/10 11:03:41;;;;;;;3.23;1.60;;;;;;;;;;5093035;28;20547;-77
2022/08/10 11:06:19;;;;;;;2.90;1.63;;;;;;;;;;5092117;28;20606;-76
2022/08/10 11:08:58;;;;;;;2.13;1.93;;;;;;;;;;5093013;28;20527;-75
2022/08/10 11:11:31;;;;;;;2.07;1.87;;;;;;;;;;5079627;28;20460;-75
2022/08/10 11:14:09;;;;;;;1.73;1.20;;;;;;;;;;5076780;28;20985;-75
2022/08/10 11:16:43;;;;;;;1.67;1.60;;;;;;;;;;5075923;28;20433;-76
2022/08/10 11:19:16;;;;;;;3.63;1.90;;;;;;;;;;5075599;28;20440;-77
2022/08/10 11:22:02;;;;;;;1.80;1.70;;;;;;;;;;5074256;28;20445;-76
2022/08/10 11:24:45;;;;;;;2.20;1.43;;;;;;;;;;5072981;28;20507;-75
2022/08/10 11:27:19;;;;;;;2.00;1.90;;;;;;;;;;5073554;28;20476;-78
2022/08/10 11:29:51;;;;;;;1.57;1.47;;;;;;;;;;5074508;28;20538;-77
2022/08/10 11:32:26;;;;;;;2.33;1.47;;;;;;;;;;5074983;28;20428;-76
2022/08/10 11:35:04;;;;;;;1.53;1.40;;;;;;;;;;5073538;28;20551;-79
2022/08/10 11:37:38;;;;;;;1.90;1.40;;;;;;;;;;5074625;28;20489;-76
2022/08/10 11:40:21;;;;;;;1.70;1.60;;;;;;;;;;5075422;28;20467;-78
2022/08/10 11:42:56;;;;;;;2.10;1.30;;;;;;;;;;5075666;28;20432;-78
2022/08/10 11:45:27;;;;;;;2.00;1.80;;;;;;;;;;5090395;28;20467;-78
2022/08/10 11:47:59;;;;;;;1.77;1.53;;;;;;;;;;5094541;28;20563;-76
2022/08/10 11:50:30;;;;;;;3.03;1.60;;;;;;;;;;5094653;28;20493;-78
2022/08/10 11:53:03;;;;;;;2.20;1.70;;;;;;;;;;5091493;28;20433;-77
2022/08/10 11:55:32;;;;;;;3.30;1.60;;;;;;;;;;5088349;28;20547;-77
2022/08/10 11:59:55;;;;;;;2.50;1.50;;;;;;;;;;5093347;28;20476;-76
2022/08/10 12:00:57;;;;;;;1.50;1.40;;;;;;;;;;5092916;28;20839;-79
2022/08/10 12:03:27;;;;;;;3.53;1.87;;;;;;;;;;5093229;28;20442;-78
2022/08/10 12:05:55;;;;;;;1.50;1.40;;;;;;;;;;5092296;28;20470;-77
2022/08/10 12:08:24;;;;;;;1.90;1.80;;;;;;;;;;5092383;28;20440;-77
2022/08/10 12:10:55;;;;;;;4.47;1.80;;;;;;;;;;5092353;28;20439;-76
2022/08/10 12:13:26;;;;;;;1.33;1.30;;;;;;;;;;5092158;28;20436;-77
2022/08/10 12:16:00;;;;;;;6.00;1.73;;;;;;;;;;5092833;28;20459;-75
2022/08/10 12:18:34;;;;;;;3.87;1.90;;;;;;;;;;5091840;28;20420;-77
2022/08/10 12:21:09;;;;;;;1.83;1.70;;;;;;;;;;5090714;28;20447;-76
2022/08/10 12:23:40;;;;;;;2.10;1.70;;;;;;;;;;5091743;28;20451;-76
2022/08/10 12:26:12;;;;;;;1.60;1.50;;;;;;;;;;5091756;28;20470;-77
2022/08/10 12:28:42;;;;;;;1.60;1.50;;;;;;;;;;5092141;28;20486;-76
2022/08/10 12:31:11;;;;;;;1.67;1.57;;;;;;;;;;5092027;28;20481;-76
2022/08/10 12:33:47;;;;;;;2.20;1.87;;;;;;;;;;5091386;28;20440;-76
2022/08/10 12:36:18;;;;;;;1.70;1.60;;;;;;;;;;5091707;28;20463;-76
2022/08/10 12:38:50;;;;;;;2.87;1.60;;;;;;;;;;5091552;28;20443;-76
2022/08/10 12:41:22;;;;;;;1.80;1.60;;;;;;;;;;5091816;28;20451;-75
2022/08/10 12:43:51;;;;;;;2.50;1.30;;;;;;;;;;5091322;28;20458;-76
2022/08/10 12:46:23;;;;;;;1.97;1.60;;;;;;;;;;5091667;28;20519;-77
2022/08/10 12:48:55;;;;;;;3.20;1.90;;;;;;;;;;5091554;28;20540;-76
2022/08/10 12:51:24;;;;;;;2.13;1.60;;;;;;;;;;5091495;28;20444;-77
2022/08/10 12:53:54;;;;;;;2.67;1.70;;;;;;;;;;5091169;28;20435;-75
2022/08/10 12:56:24;;;;;;;1.70;1.60;;;;;;;;;;5091231;28;20464;-76
2022/08/10 12:58:52;;;;;;;1.73;1.63;;;;;;;;;;5091654;28;20431;-76
2022/08/10 13:01:20;;;;;;;2.60;1.60;;;;;;;;;;5091899;28;20726;-77
2022/08/10 13:03:49;;;;;;;2.37;1.67;;;;;;;;;;5091271;28;20443;-76
2022/08/10 13:06:21;;;;;;;1.80;1.70;;;;;;;;;;5091286;28;20525;-77
2022/08/10 13:11:37;;;;;;;3.33;1.80;;;;;;;;;;5091497;28;20477;-76
2022/08/10 13:14:11;;;;;;;1.50;1.40;;;;;;;;;;5091004;28;20818;-77
2022/08/10 13:16:40;;;;;;;2.83;1.70;;;;;;;;;;5091641;28;20477;-76
2022/08/10 13:19:20;;;;;;;1.97;1.87;;;;;;;;;;5091450;28;21009;-77
2022/08/10 13:21:54;;;;;;;1.83;1.40;;;;;;;;;;5091475;28;20432;-78
2022/08/10 13:24:28;;;;;;;2.77;1.63;;;;;;;;;;5090881;28;20463;-75
2022/08/10 13:26:58;;;;;;;3.53;1.70;;;;;;;;;;5090728;28;20483;-75
2022/08/10 13:29:27;;;;;;;2.10;1.73;;;;;;;;;;5094188;28;20483;-76
2022/08/10 13:31:55;;;;;;;2.10;1.90;;;;;;;;;;5095331;28;20518;-75
2022/08/10 13:34:25;;;;;;;1.47;1.37;;;;;;;;;;5094894;28;20576;-75
2022/08/10 13:37:01;;;;;;;3.13;1.60;;;;;;;;;;5095361;28;20446;-75
2022/08/10 13:39:35;;;;;;;2.00;1.80;;;;;;;;;;5095072;28;20454;-77
2022/08/10 13:42:07;;;;;;;1.67;1.57;;;;;;;;;;5095363;28;20927;-76
2022/08/10 13:44:37;;;;;;;1.57;1.47;;;;;;;;;;5094692;28;20479;-76
2022/08/10 13:47:06;;;;;;;1.50;1.47;;;;;;;;;;5095193;28;20554;-76
2022/08/10 13:49:43;;;;;;;2.63;1.40;;;;;;;;;;5094972;28;20443;-76
2022/08/10 13:52:14;;;;;;;3.97;1.43;;;;;;;;;;5094748;28;20478;-77
2022/08/10 13:54:44;;;;;;;1.40;1.30;;;;;;;;;;5095856;28;20468;-77
2022/08/10 13:57:13;;;;;;;2.93;1.73;;;;;;;;;;5095599;28;20444;-77
2022/08/10 13:59:46;;;;;;;1.80;1.70;;;;;;;;;;5095034;28;20811;-76
2022/08/10 14:02:15;;;;;;;2.07;1.83;;;;;;;;;;5095850;28;20474;-75
2022/08/10 14:04:45;;;;;;;4.53;1.43;;;;;;;;;;5094630;28;20464;-77
2022/08/10 14:07:15;;;;;;;4.73;1.47;;;;;;;;;;5095128;28;20480;-77
2022/08/10 14:09:46;;;;;;;1.50;1.40;;;;;;;;;;5092579;28;20530;-76
2022/08/10 14:12:26;;;;;;;3.30;1.63;;;;;;;;;;5074748;28;20445;-77
2022/08/10 14:14:55;;;;;;;1.77;1.67;;;;;;;;;;5076204;28;21041;-76
2022/08/10 14:17:23;;;;;;;4.70;1.73;;;;;;;;;;5076019;28;20502;-76
2022/08/10 14:19:52;;;;;;;2.33;1.70;;;;;;;;;;5074825;28;20460;-77
2022/08/10 14:22:22;;;;;;;2.90;1.70;;;;;;;;;;5075213;28;20444;-76
2022/08/10 14:24:52;;;;;;;2.33;1.40;;;;;;;;;;5074115;28;20470;-76
2022/08/10 14:27:28;;;;;;;1.70;1.60;;;;;;;;;;5079136;28;20834;-76
2022/08/10 14:29:57;;;;;;;2.03;1.77;;;;;;;;;;5080992;28;20451;-74
2022/08/10 14:35:34;;;;;;;2.43;1.60;;;;;;;;;;5056592;28;20448;-78
2022/08/10 14:38:08;;;;;;;2.70;1.70;;;;;;;;;;5074427;28;20437;-76
2022/08/10 14:40:39;;;;;;;1.80;1.67;;;;;;;;;;5075119;28;20416;-77
2022/08/10 14:43:14;;;;;;;2.03;1.83;;;;;;;;;;5075759;28;20540;-76
2022/08/10 14:45:44;;;;;;;3.03;1.50;;;;;;;;;;5076701;28;20464;-76
2022/08/10 14:48:17;;;;;;;1.57;1.30;;;;;;;;;;5076356;28;20502;-76
2022/08/10 14:50:47;;;;;;;2.00;1.90;;;;;;;;;;5075614;28;20559;-77
2022/08/10 14:53:18;;;;;;;4.80;1.50;;;;;;;;;;5076907;28;20465;-76
2022/08/10 14:55:51;;;;;;;2.70;1.50;;;;;;;;;;5074853;28;20461;-77
2022/08/10 14:58:22;;;;;;;3.13;1.87;;;;;;;;;;5073972;28;20452;-76
2022/08/10 15:00:53;;;;;;;3.90;1.50;;;;;;;;;;5073579;28;20449;-77
2022/08/10 15:03:23;;;;;;;1.47;1.30;;;;;;;;;;5073245;28;20445;-76
2022/08/10 15:06:00;;;;;;;4.87;1.70;;;;;;;;;;5073555;28;20469;-76
2022/08/10 15:08:34;;;;;;;1.60;1.50;;;;;;;;;;5073430;28;20487;-78
2022/08/10 15:11:04;;;;;;;1.23;1.13;;;;;;;;;;5086555;28;20540;-77
2022/08/10 15:16:18;;;;;;;1.50;1.40;;;;;;;;;;5092500;28;21071;-77
2022/08/10 15:18:58;;;;;;;2.50;1.53;;;;;;;;;;5093947;28;20432;-76
2022/08/10 15:21:27;;;;;;;1.60;1.50;;;;;;;;;;5095484;28;20436;-76
2022/08/10 15:23:57;;;;;;;1.70;1.60;;;;;;;;;;5096093;28;20455;-76
2022/08/10 15:26:27;;;;;;;1.70;1.57;;;;;;;;;;5095000;28;20446;-77
2022/08/10 15:28:59;;;;;;;1.47;1.37;;;;;;;;;;5093442;28;20572;-77